Burns Pinion Ridge Reserve, California Weather observations

Data are for 10 minute period ending at time listed.
 Day   Time   Solar   Ave.   Ave.  Ave.  Vector  Max.   Baro.   Total    
  of    of     Rad.   Air    Rel.  Wind   Wind   Wind  Press.  Precip.   
Year   Day            Temp.  Hum.  Speed  Dir.   Gust                    
2014   (PST)  Kw/m2    F      %     mph   deg.    mph    mb.     in.     
-------------------------------------------------------------------------
 202    1:10   0.00   72.9    21    5.2   205    11.2   876.4    0.00 
 202    1:20   0.00   73.2    20    3.7   216     8.6   876.3    0.00 
 202    1:30   0.00   73.6    20    3.4   214     8.1   876.3    0.00 
 202    1:40   0.00   74.2    20    6.2   222    14.5   876.1    0.00 
 202    1:50   0.00   74.8    20    8.5   215    15.7   876.1    0.00 
 202    2:00   0.00   74.7    21    9.0   217    18.3   876.1    0.00 
 202    2:10   0.00   75.0    21   11.0   213    20.8   876.1    0.00 
 202    2:20   0.00   74.7    22    8.6   210    17.2   876.1    0.00 
 202    2:30   0.00   73.9    22    5.3   153    11.9   876.1    0.00 
 202    2:40   0.00   73.6    24    5.6   197    14.9   876.1    0.00 
 202    2:50   0.00   74.1    25    4.1   176     9.9   876.2    0.00 
 202    3:00   0.00   72.9    25    2.8   126     6.4   876.2    0.00 
 202    3:10   100.00  99999.0   99999  99999.0   99999   99999.0   99999.0   99999.00 
 202    3:20   0.00   72.8    24    3.5   169     8.5   876.5    0.00 
 202    3:30   0.00   71.5    24    4.4   169     9.3   876.5    0.00 
 202    3:40   0.00   71.5    24    3.9   184     8.0   876.6    0.00 
 202    3:50   0.00   71.3    24    2.6   156     5.9   876.6    0.00 
 202    4:00   0.00   70.8    25    3.2   167     7.7   876.6    0.00 
 202    4:10   0.00   70.6    25    3.9   154     6.7   876.5    0.00 
 202    4:20   0.00   70.4    25    3.8   153     6.1   876.5    0.00 
 202    4:30   0.00   70.5    25    3.7   155     6.6   876.5    0.00 
 202    4:40   0.00   70.2    26    3.4   153     6.0   876.5    0.00 
 202    4:50   0.00   70.5    26    3.0   143     6.2   876.5    0.00 
 202    5:00   0.01   69.9    27    3.0   145     5.8   876.6    0.00 
 202    5:10   0.01   69.3    27    3.0   145     5.1   876.7    0.00 
 202    5:20   0.01   69.8    27    2.8   139     4.5   876.7    0.00 
 202    5:30   0.06   69.8    28    3.1   132     5.8   876.8    0.00 
 202    5:40   0.10   72.9    26    3.2   127     5.0   877.0    0.00 
 202    5:50   0.13   74.6    26    3.9   125     5.9   877.1    0.00 
 202    6:00   0.17   75.4    25    3.9    97     6.3   877.3    0.00 
 202    6:10   0.20   75.8    26    4.2    72     5.9   877.6    0.00 
 202    6:20   0.23   76.5    26    4.2    55     6.8   877.8    0.00 
 202    6:30   0.27   77.7    24    2.5    91     7.5   878.0    0.00 
 202    6:40   0.31   77.9    24    4.3    92     6.7   878.2    0.00 
 202    6:50   0.34   78.5    24    3.0    92     6.8   878.2    0.00 
 202    7:00   0.38   79.3    23    2.5    86     5.0   878.4    0.00 
 202    7:10   0.42   79.3    23    3.2   100     5.6   878.4    0.00 
 202    7:20   0.46   80.0    22    4.9   121     7.4   878.5    0.00 
 202    7:30   0.49   80.5    21    5.7   134     9.1   878.6    0.00 
 202    7:40   0.53   82.2    19    5.7   145     8.4   878.6    0.00 
 202    7:50   0.56   83.0    18    4.2   156     8.2   878.7    0.00 
 202    8:00   0.60   82.8    18    4.6   143     9.6   878.7    0.00 
 202    8:10   0.63   83.1    18    5.3   151    10.7   876.9    0.00 
 202    8:20   0.67   83.3    17    5.9   140    10.4   878.8    0.00 
 202    8:30   0.70   84.0    16    5.5   173    12.2   878.9    0.00 
 202    8:40   0.73   83.7    16    4.7   207    11.3   878.8    0.00 
 202    8:50   0.76   83.7    15    6.6   218    12.9   878.8    0.00 
 202    9:00   0.79   84.9    15    4.7   194    10.8   878.8    0.00 
 202    9:10   0.82   84.4    15    5.8   222    12.3   878.9    0.00 
 202    9:20   0.85   84.2    15    6.2   209    15.1   878.9    0.00 
 202    9:30   0.87   84.7    14    7.1   209    16.5   879.0    0.00 
 202    9:40   0.90   83.9    14    7.0   203    13.3   879.0    0.00 
 202    9:50   0.93   84.0    14    6.3   211    12.1   879.0    0.00 
 202   10:00   0.97   85.4    14    5.2   172    13.7   878.9    0.00 
 202   10:10   0.98   85.4    15    6.4   165    18.2   878.8    0.00 
 202   10:20   1.03   85.8    15    8.3   159    14.1   878.8    0.00 
 202   10:30   1.00   86.0    15    6.9   160    16.5   878.8    0.00 
 202   10:40   0.97   84.9    16    7.7   207    14.5   878.9    0.00 
 202   10:50   0.79   82.8    18    8.1   206    13.4   879.0    0.00 
 202   11:00   1.04   82.5    19    8.7   212    15.1   878.9    0.00 
 202   11:10   0.96   83.5    18    6.8   211    14.3   878.9    0.00 
 202   11:20   1.07   83.7    17    7.1   209    15.4   878.8    0.00 
 202   11:30   1.07   85.4    15    6.5   202    13.7   878.8    0.00 
 202   11:40   1.00   87.0    14    6.5   170    12.0   878.8    0.00 
 202   11:50   0.83   86.1    14    5.3   175    12.5   878.8    0.00 
 202   12:00   0.79   86.4    14    6.4   157    14.5   878.7    0.00 
 202   12:10   0.81   84.7    14    6.8   205    12.7   878.6    0.00 
 202   12:20   1.01   85.8    13    5.9   210    12.6   878.6    0.00 
 202   12:30   0.88   86.9    12    5.7   214    14.6   878.6    0.00 
 202   12:40   0.91   86.2    12    5.8   201    13.0   878.5    0.00 
 202   12:50   1.01   86.6    12    7.1   190    14.8   878.4    0.00 
 202   13:00   1.01   87.7    12    5.6   179    11.8   878.3    0.00 
 202   13:10   1.00   89.5    11    6.8   189    16.1   878.2    0.00 
 202   13:20   0.99   88.0    11    7.5   192    16.0   878.2    0.00 
 202   13:30   0.98   88.1    10    7.4   203    17.5   878.1    0.00 
 202   13:40   0.96   88.7    10    8.2   172    19.2   878.0    0.00 
 202   13:50   0.94   88.0    10   10.1   163    20.8   877.9    0.00 
 202   14:00   0.93   88.2    10    9.4   160    16.8   877.7    0.00 
 202   14:10   0.90   89.0    10    8.1   166    19.3   877.5    0.00 
 202   14:20   0.88   89.0    10    7.0   166    16.0   877.5    0.00 
 202   14:30   0.86   88.7    11    8.8   168    16.2   877.4    0.00 
 202   14:40   0.83   89.0    11    7.6   176    17.5   877.3    0.00 
 202   14:50   0.80   89.5    11    8.4   156    16.1   877.2    0.00 
 202   15:00   0.77   89.7    12    7.8   177    16.3   877.2    0.00 
 202   15:10   0.74   89.2    12    7.3   187    15.5   877.2    0.00 
 202   15:20   0.71   89.3    12    6.9   154    15.4   877.1    0.00 
 202   15:30   0.68   88.8    13    9.4   156    18.4   877.1    0.00 
 202   15:40   0.65   89.3    13    7.0   167    15.1   877.0    0.00 
 202   15:50   0.62   87.7    13    7.8   208    17.1   877.1    0.00 
 202   16:00   0.58   88.0    14    6.4   171    14.6   877.1    0.00 
 202   16:10   0.55   87.4    14    9.3   191    19.5   877.1    0.00 
 202   16:20   0.51   88.1    14    5.5   178    14.6   877.0    0.00 
 202   16:30   0.47   87.3    14    6.6   191    13.9   877.0    0.00 
 202   16:40   0.44   87.3    15    6.4   186    18.3   877.0    0.00 
 202   16:50   0.40   86.1    15    7.8   204    17.5   877.0    0.00 
 202   17:00   0.36   85.8    16    7.0   190    15.9   877.0    0.00 
 202   17:10   0.33   86.4    15    6.1   201    12.4   877.0    0.00 
 202   17:20   0.29   86.0    16    6.9   208    14.2   877.1    0.00 
 202   17:30   0.25   84.3    17    8.7   214    15.8   877.1    0.00 
 202   17:40   0.22   84.9    16    6.2   208    14.4   877.2    0.00 
 202   17:50   0.18   84.3    17    6.0   200    14.8   877.2    0.00 
 202   18:00   0.15   84.3    17    5.9   199    13.1   877.2    0.00 
 202   18:10   0.12   83.6    17    5.8   198    12.1   877.3    0.00 
 202   18:20   0.08   82.2    17    7.5   210    16.1   877.3    0.00 
 202   18:30   0.06   82.0    17    7.4   210    15.3   877.3    0.00 
 202   18:40   0.03   80.5    19    8.3   213    14.7   877.3    0.00 
 202   18:50   0.01   79.4    20    9.1   213    14.9   877.4    0.00 
 202   19:00   0.00   78.8    21    8.8   216    13.5   877.5    0.00 
 202   19:10   0.00   78.2    22    5.8   221    12.1   875.6    0.00 
 202   19:20   0.00   77.8    24    7.3   211    12.2   877.5    0.00 
 202   19:30   0.00   77.5    25    6.3   210    10.0   877.5    0.00 
 202   19:40   0.00   77.2    25    5.0   212     9.6   877.6    0.00 
 202   19:50   0.00   76.9    26    4.7   208     7.9   877.6    0.00 
 202   20:00   0.00   76.5    26    4.0   213     6.4   877.8    0.00 
 202   20:10   0.00   76.1    26    4.3   209     5.9   876.0    0.00 
 202   20:20   0.00   76.1    26    4.7   199     6.4   878.0    0.00 
 202   20:30   0.00   75.2    27    4.0   188     6.5   878.0    0.00 
 202   20:40   0.00   75.2    28    4.0   189     7.7   878.1    0.00 
 202   20:50   0.00   74.8    29    4.9   188     8.6   878.1    0.00 
 202   21:00   0.00   74.9    29    5.6   201     9.9   878.3    0.00 
 202   21:10   0.00   75.6    28    3.5   213     8.3   537.6    0.00 
 202   21:20   0.00   75.1    28    4.2   211     6.5   501.8    0.00 
 202   21:30   0.00   75.5    26    3.0   205     6.2   501.8    0.00 
 202   21:40   0.00   74.0    28    2.4   198     6.5   501.8    0.00 
 202   21:50   0.00   74.5    26    3.8   214    10.4   501.8    0.00 
 202   22:00   0.00   75.6    25    5.9   218     9.1   501.8    0.00 
 202   22:10   0.00   75.5    25    5.4   216     9.9   842.7    0.00 
 202   22:20   0.00   74.8    26    4.0   212     7.6   878.6    0.00 
 202   22:30   0.00   75.2    26    6.0   220    10.3   878.5    0.00 
 202   22:40   0.00   74.8    26    4.2   216     7.6   878.5    0.00 
 202   22:50   0.00   74.6    25    5.5   217    10.1   878.5    0.00 
 202   23:00   0.00   74.6    25    4.2   216     8.4   878.5    0.00 
 202   23:10   0.00   74.4    24    4.7   217     8.4   878.5    0.00 
 202   23:20   0.00   75.1    22    4.8   219     8.1   878.4    0.00 
 202   23:30   0.00   75.1    22    4.4   216     8.4   878.3    0.00 
 202   23:40   0.00   74.8    22    3.4   224     7.1   878.3    0.00 
 202   23:50   0.00   75.2    22    4.5   218     9.3   878.2    0.00 
 203    0:00   0.00   75.6    23    5.4   219    10.0   878.2    0.00 
 203    0:10   0.00   75.6    23    4.5   219     8.5   878.1    0.00 
 203    0:20   0.00   75.6    23    4.9   218     8.4   878.1    0.00 
 203    0:30   0.00   75.4    24    4.6   225     8.1   878.1    0.00 
 203    0:40   0.00   75.5    24    5.1   221     8.6   878.1    0.00 
 203    0:50   0.00   75.4    23    4.1   206     8.3   878.1    0.00 
 203    1:00   0.00   73.6    24    2.1   139     4.4   878.2    0.00 

Return to Burns Pinion Ridge Reserve graphs page.


Western Regional Climate Center,wrcc@dri.edu